Time;durP1;ratioP1;P1;durP2;ratioP2;P2;SDS_P1;SDS_P2;PMS_P1;PMS_P2;Temp;Humidity;BMP_temperature;BMP_pressure;BME280_temperature;BME280_humidity;BME280_pressure;Samples;Min_cycle;Max_cycle;Signal;HPM_P1;HPM_P2
2023/07/27 00:00:31;;;;;;;;;;;;;;;14.38;88.62;99892.40;103842;280;121454;-53
2023/07/27 00:03:23;;;;;;;;;;;;;;;14.36;88.69;99886.09;104097;279;104292;-53
2023/07/27 00:05:58;;;;;;;;;;;;;;;14.33;88.78;99890.36;104100;279;112832;-56
2023/07/27 00:08:31;;;;;;;;;;;;;;;14.34;88.89;99891.35;104118;279;96776;-54
2023/07/27 00:11:03;;;;;;;;;;;;;;;14.33;89.07;99897.56;104113;279;97911;-52
2023/07/27 00:13:35;;;;;;;;;;;;;;;14.33;88.92;99894.42;104054;279;121827;-51
2023/07/27 00:16:10;;;;;;;;;;;;;;;14.30;89.19;99899.90;104493;279;103963;-52
2023/07/27 00:18:42;;;;;;;;;;;;;;;14.29;89.15;99897.81;104079;279;114792;-55
2023/07/27 00:21:14;;;;;;;;;;;;;;;14.28;89.13;99901.34;104089;279;96409;-56
2023/07/27 00:23:47;;;;;;;;;;;;;;;14.28;89.41;99901.88;104132;279;97905;-53
2023/07/27 00:26:19;;;;;;;;;;;;;;;14.33;89.31;99904.48;104099;279;120796;-53
2023/07/27 00:28:52;;;;;;;;;;;;;;;14.36;89.41;99913.54;104101;279;105142;-53
2023/07/27 00:31:24;;;;;;;;;;;;;;;14.36;89.52;99914.89;104106;279;114506;-54
2023/07/27 00:33:56;;;;;;;;;;;;;;;14.39;89.80;99920.04;104105;279;95829;-53
2023/07/27 00:36:28;;;;;;;;;;;;;;;14.40;89.81;99923.98;104546;279;97432;-53
2023/07/27 00:39:00;;;;;;;;;;;;;;;14.44;89.84;99925.41;104524;279;121178;-56
2023/07/27 00:41:33;;;;;;;;;;;;;;;14.48;90.00;99919.49;104519;279;104467;-56
2023/07/27 00:44:05;;;;;;;;;;;;;;;14.49;89.53;99916.86;104116;279;114746;-52
2023/07/27 00:46:38;;;;;;;;;;;;;;;14.49;89.51;99920.99;104486;279;95449;-51
2023/07/27 00:49:10;;;;;;;;;;;;;;;14.42;89.43;99927.48;104141;279;96974;-56
2023/07/27 00:51:44;;;;;;;;;;;;;;;14.42;89.47;99928.52;104072;279;121219;-56
2023/07/27 00:54:16;;;;;;;;;;;;;;;14.38;89.56;99929.41;104114;279;105210;-56
2023/07/27 00:56:48;;;;;;;;;;;;;;;14.39;89.58;99924.13;104076;279;113460;-56
2023/07/27 00:59:21;;;;;;;;;;;;;;;14.38;89.24;99922.46;104060;279;96944;-54
2023/07/27 01:01:53;;;;;;;;;;;;;;;14.33;89.35;99926.70;104106;267;96148;-54
2023/07/27 01:04:26;;;;;;;;;;;;;;;14.26;88.97;99932.02;104088;279;121816;-52
2023/07/27 01:06:58;;;;;;;;;;;;;;;14.14;88.90;99931.60;104504;279;105182;-52
2023/07/27 01:09:31;;;;;;;;;;;;;;;14.10;88.88;99926.35;104039;279;114873;-54
2023/07/27 01:12:09;;;;;;;;;;;;;;;14.10;88.99;99920.58;104103;278;97137;-54
2023/07/27 01:14:47;;;;;;;;;;;;;;;14.02;88.99;99920.91;104530;278;97528;-51
2023/07/27 01:17:24;;;;;;;;;;;;;;;14.00;88.88;99919.23;104111;279;122831;-52
2023/07/27 01:20:14;;;;;;;;;;;;;;;13.93;88.92;99916.77;104100;279;106521;-56
2023/07/27 01:23:10;;;;;;;;;;;;;;;13.88;89.00;99917.70;104083;279;112949;-56
2023/07/27 01:26:13;;;;;;;;;;;;;;;13.83;89.24;99914.05;104106;279;96299;-53
2023/07/27 01:28:58;;;;;;;;;;;;;;;13.82;89.25;99916.45;104078;279;97609;-56
2023/07/27 01:31:41;;;;;;;;;;;;;;;13.81;89.51;99920.94;104484;279;122130;-56
2023/07/27 01:34:19;;;;;;;;;;;;;;;13.82;89.38;99918.80;104135;279;103634;-51
2023/07/27 01:36:55;;;;;;;;;;;;;;;13.82;89.43;99921.84;104092;279;113451;-52
2023/07/27 01:39:29;;;;;;;;;;;;;;;13.80;89.76;99925.86;104485;279;96483;-53
2023/07/27 01:42:03;;;;;;;;;;;;;;;13.81;89.60;99924.19;104119;279;97902;-54
2023/07/27 01:44:36;;;;;;;;;;;;;;;13.77;89.92;99926.73;104094;267;120695;-54
2023/07/27 01:47:09;;;;;;;;;;;;;;;13.79;89.83;99922.38;104115;279;105382;-53
2023/07/27 01:49:43;;;;;;;;;;;;;;;13.74;89.83;99916.85;103927;280;114639;-54
2023/07/27 01:52:16;;;;;;;;;;;;;;;13.70;89.74;99917.26;104487;279;96017;-54
2023/07/27 01:54:50;;;;;;;;;;;;;;;13.71;89.87;99915.33;104078;279;95593;-54
2023/07/27 01:57:22;;;;;;;;;;;;;;;13.77;90.13;99907.77;104113;279;120674;-54
2023/07/27 01:59:55;;;;;;;;;;;;;;;13.84;90.19;99909.80;104115;279;105488;-56
2023/07/27 02:02:27;;;;;;;;;;;;;;;13.83;90.23;99914.90;103869;280;114240;-56
2023/07/27 02:05:00;;;;;;;;;;;;;;;13.82;90.34;99919.38;104504;279;96678;-51
2023/07/27 02:07:36;;;;;;;;;;;;;;;13.81;90.20;99924.73;104530;279;97206;-51
2023/07/27 02:10:12;;;;;;;;;;;;;;;13.87;90.08;99927.31;104519;279;120552;-54
2023/07/27 02:12:48;;;;;;;;;;;;;;;13.88;89.81;99924.58;104116;279;104958;-54
2023/07/27 02:15:24;;;;;;;;;;;;;;;13.89;90.10;99928.64;104559;279;113641;-54
2023/07/27 02:18:00;;;;;;;;;;;;;;;13.94;90.25;99913.77;104093;279;96911;-54
2023/07/27 02:20:35;;;;;;;;;;;;;;;14.01;90.16;99907.84;104123;279;94989;-53
2023/07/27 02:23:10;;;;;;;;;;;;;;;14.05;89.95;99903.36;104518;271;123217;-54
2023/07/27 02:25:42;;;;;;;;;;;;;;;14.04;89.96;99898.77;104109;279;105998;-54
2023/07/27 02:28:15;;;;;;;;;;;;;;;14.01;89.95;99897.80;104047;279;113778;-53
2023/07/27 02:30:47;;;;;;;;;;;;;;;13.98;89.78;99896.73;104473;279;96884;-53
2023/07/27 02:33:19;;;;;;;;;;;;;;;13.97;89.59;99891.00;104124;279;97374;-53
2023/07/27 02:35:53;;;;;;;;;;;;;;;13.89;89.70;99891.91;104516;279;122528;-56
2023/07/27 02:38:25;;;;;;;;;;;;;;;13.82;89.79;99895.40;104484;279;104909;-55
2023/07/27 02:41:00;;;;;;;;;;;;;;;13.87;89.84;99896.90;104469;279;113198;-53
2023/07/27 02:43:32;;;;;;;;;;;;;;;13.79;89.55;99902.36;104067;279;94848;-52
2023/07/27 02:46:05;;;;;;;;;;;;;;;13.69;89.26;99904.91;104100;279;96944;-51
2023/07/27 02:48:37;;;;;;;;;;;;;;;13.58;89.15;99905.38;104523;279;121223;-53
2023/07/27 02:51:09;;;;;;;;;;;;;;;13.48;89.13;99906.38;104096;279;106114;-53
2023/07/27 02:53:41;;;;;;;;;;;;;;;13.40;89.22;99905.17;104070;279;113639;-53
2023/07/27 02:56:14;;;;;;;;;;;;;;;13.35;89.16;99910.72;104088;279;95158;-53
2023/07/27 02:58:46;;;;;;;;;;;;;;;13.29;89.38;99917.98;104106;279;96150;-52
2023/07/27 03:01:18;;;;;;;;;;;;;;;13.26;89.53;99919.84;104096;279;120944;-53
2023/07/27 03:03:50;;;;;;;;;;;;;;;13.19;89.59;99920.67;104492;279;106091;-53
2023/07/27 03:06:22;;;;;;;;;;;;;;;13.16;89.64;99921.91;104061;279;114220;-53
2023/07/27 03:08:55;;;;;;;;;;;;;;;13.17;89.72;99925.11;104485;282;96966;-53
2023/07/27 03:11:27;;;;;;;;;;;;;;;13.17;89.76;99926.45;104482;279;97997;-53
2023/07/27 03:13:59;;;;;;;;;;;;;;;13.18;89.82;99930.02;104091;279;121384;-53
2023/07/27 03:16:32;;;;;;;;;;;;;;;13.18;90.01;99931.87;104132;279;105453;-53
2023/07/27 03:19:04;;;;;;;;;;;;;;;13.18;90.04;99936.95;104068;328;114515;-51
2023/07/27 03:21:36;;;;;;;;;;;;;;;13.16;90.15;99934.45;104076;279;97451;-51
2023/07/27 03:24:09;;;;;;;;;;;;;;;13.23;90.25;99935.41;104096;279;96309;-51
2023/07/27 03:26:42;;;;;;;;;;;;;;;13.22;90.06;99936.51;104505;279;120323;-51
2023/07/27 03:29:14;;;;;;;;;;;;;;;13.19;90.16;99935.95;104061;279;105499;-53
2023/07/27 03:31:46;;;;;;;;;;;;;;;13.17;90.12;99942.63;104082;279;115256;-53
2023/07/27 03:34:18;;;;;;;;;;;;;;;13.21;90.24;99949.04;104100;279;94923;-51
2023/07/27 03:36:50;;;;;;;;;;;;;;;13.25;90.45;99954.30;104092;279;97928;-51
2023/07/27 03:39:23;;;;;;;;;;;;;;;13.29;90.50;99955.53;104125;279;122698;-55
2023/07/27 03:41:55;;;;;;;;;;;;;;;13.36;90.46;99955.80;103885;280;105413;-55
2023/07/27 03:44:27;;;;;;;;;;;;;;;13.39;90.61;99951.60;104118;279;114238;-53
2023/07/27 03:47:00;;;;;;;;;;;;;;;13.41;90.73;99953.17;104491;279;96542;-53
2023/07/27 03:49:32;;;;;;;;;;;;;;;13.45;90.86;99957.41;104530;279;97825;-54
2023/07/27 03:52:04;;;;;;;;;;;;;;;13.48;91.05;99962.23;104077;279;121227;-54
2023/07/27 03:54:37;;;;;;;;;;;;;;;13.54;91.17;99960.77;104097;279;105559;-54
2023/07/27 03:57:09;;;;;;;;;;;;;;;13.64;91.18;99954.34;104090;279;114552;-53
2023/07/27 03:59:42;;;;;;;;;;;;;;;13.72;90.97;99951.79;104060;279;97546;-56
2023/07/27 04:02:14;;;;;;;;;;;;;;;13.79;90.97;99952.27;104530;279;97921;-56
2023/07/27 04:04:47;;;;;;;;;;;;;;;13.81;91.02;99950.70;104530;279;121301;-56
2023/07/27 04:07:19;;;;;;;;;;;;;;;13.82;90.98;99957.35;104508;279;105532;-56
2023/07/27 04:09:52;;;;;;;;;;;;;;;13.85;90.90;99958.76;104105;279;114226;-52
2023/07/27 04:12:24;;;;;;;;;;;;;;;13.90;90.87;99954.81;104496;279;96011;-51
2023/07/27 04:14:58;;;;;;;;;;;;;;;13.97;91.07;99958.23;104128;279;97230;-58
2023/07/27 04:17:30;;;;;;;;;;;;;;;14.10;91.09;99962.30;104534;279;120484;-53
2023/07/27 04:20:02;;;;;;;;;;;;;;;14.20;90.85;99962.36;104138;279;106163;-56
2023/07/27 04:22:34;;;;;;;;;;;;;;;14.34;90.99;99964.39;104087;279;113818;-56
2023/07/27 04:25:08;;;;;;;;;;;;;;;14.51;91.07;99969.77;104100;267;95452;-56
2023/07/27 04:27:40;;;;;;;;;;;;;;;14.72;91.14;99967.58;104087;279;96799;-56
2023/07/27 04:30:13;;;;;;;;;;;;;;;14.96;91.09;99967.84;104104;279;121175;-52
2023/07/27 04:32:45;;;;;;;;;;;;;;;15.17;90.94;99965.89;104099;283;104663;-52
2023/07/27 04:35:18;;;;;;;;;;;;;;;15.30;90.69;99962.77;104067;279;114787;-56
2023/07/27 04:37:50;;;;;;;;;;;;;;;15.57;90.08;99962.98;103932;279;95347;-56
2023/07/27 04:40:23;;;;;;;;;;;;;;;15.65;89.63;99955.80;104110;279;97210;-54
2023/07/27 04:42:55;;;;;;;;;;;;;;;15.69;89.35;99950.63;103970;280;122105;-56
2023/07/27 04:45:27;;;;;;;;;;;;;;;15.91;89.33;99951.29;104059;279;105579;-54
2023/07/27 04:48:00;;;;;;;;;;;;;;;16.05;89.16;99949.54;104075;279;114210;-53
2023/07/27 04:50:35;;;;;;;;;;;;;;;16.24;88.79;99947.02;104090;279;95201;-54
2023/07/27 04:53:07;;;;;;;;;;;;;;;16.36;88.60;99941.99;104077;279;96847;-56
2023/07/27 04:55:40;;;;;;;;;;;;;;;16.57;88.40;99943.80;104477;279;120814;-56
2023/07/27 04:58:12;;;;;;;;;;;;;;;17.13;88.38;99943.58;104078;279;104759;-56
2023/07/27 05:00:45;;;;;;;;;;;;;;;17.80;87.33;99943.98;104103;279;115454;-54
2023/07/27 05:03:18;;;;;;;;;;;;;;;18.00;86.89;99940.48;104094;279;97211;-54
2023/07/27 05:05:52;;;;;;;;;;;;;;;19.09;86.08;99944.73;104522;279;97934;-56
2023/07/27 05:08:25;;;;;;;;;;;;;;;20.07;84.95;99938.60;104494;279;121100;-54
2023/07/27 05:11:02;;;;;;;;;;;;;;;20.32;82.40;99940.69;104090;279;106169;-52
2023/07/27 05:13:38;;;;;;;;;;;;;;;20.23;82.09;99939.54;104519;283;115166;-54
2023/07/27 05:16:10;;;;;;;;;;;;;;;20.55;81.42;99943.42;104085;267;94522;-54
2023/07/27 05:18:43;;;;;;;;;;;;;;;20.78;80.77;99941.18;103534;279;593039;-55
2023/07/27 05:21:15;;;;;;;;;;;;;;;21.43;79.99;99936.50;104038;279;121628;-54
2023/07/27 05:23:49;;;;;;;;;;;;;;;21.91;78.59;99931.53;104082;279;104452;-54
2023/07/27 05:26:22;;;;;;;;;;;;;;;21.49;77.78;99934.43;104056;279;114446;-54
2023/07/27 05:28:54;;;;;;;;;;;;;;;21.91;77.23;99929.11;104090;279;95243;-53
2023/07/27 05:31:26;;;;;;;;;;;;;;;22.52;76.43;99929.50;104093;279;98129;-52
2023/07/27 05:33:59;;;;;;;;;;;;;;;22.66;75.44;99925.56;104500;279;120797;-54
2023/07/27 05:36:31;;;;;;;;;;;;;;;22.91;74.15;99920.42;104091;279;106017;-54
2023/07/27 05:39:04;;;;;;;;;;;;;;;22.86;72.77;99920.16;104478;279;113823;-54
2023/07/27 05:41:36;;;;;;;;;;;;;;;23.34;72.43;99927.50;104070;279;95378;-62
2023/07/27 05:44:09;;;;;;;;;;;;;;;24.15;71.54;99923.84;104102;279;97811;-65
2023/07/27 05:46:42;;;;;;;;;;;;;;;25.02;70.30;99927.73;104103;279;121995;-64
2023/07/27 05:49:14;;;;;;;;;;;;;;;25.76;68.44;99921.25;104099;279;106329;-64
2023/07/27 05:51:46;;;;;;;;;;;;;;;26.44;66.63;99920.71;104085;279;113779;-64
2023/07/27 05:54:19;;;;;;;;;;;;;;;27.32;64.99;99922.70;104090;279;95205;-62
2023/07/27 05:56:51;;;;;;;;;;;;;;;27.85;63.16;99918.55;104121;279;96994;-61
2023/07/27 05:59:24;;;;;;;;;;;;;;;28.42;61.36;99918.27;104091;279;121791;-61
2023/07/27 06:01:56;;;;;;;;;;;;;;;28.93;59.46;99922.29;104101;279;104471;-61
2023/07/27 06:04:28;;;;;;;;;;;;;;;29.15;58.13;99922.78;104510;279;114731;-61
2023/07/27 06:07:01;;;;;;;;;;;;;;;29.25;56.90;99924.52;104128;279;93220;-61
2023/07/27 06:09:36;;;;;;;;;;;;;;;29.60;55.38;99921.11;104102;279;97902;-64
2023/07/27 06:12:12;;;;;;;;;;;;;;;29.72;54.13;99928.64;103844;281;121701;-63
2023/07/27 06:14:48;;;;;;;;;;;;;;;29.86;52.58;99927.61;104101;279;103788;-63
2023/07/27 06:17:20;;;;;;;;;;;;;;;30.08;52.43;99928.14;104043;279;113967;-63
2023/07/27 06:19:53;;;;;;;;;;;;;;;30.15;51.74;99925.61;104122;279;95063;-67
2023/07/27 06:22:26;;;;;;;;;;;;;;;30.05;51.12;99928.02;104506;279;97917;-64
2023/07/27 06:24:58;;;;;;;;;;;;;;;29.93;50.37;99930.64;104088;279;121902;-63
2023/07/27 06:27:31;;;;;;;;;;;;;;;29.11;49.84;99934.02;104156;279;104920;-65
2023/07/27 06:30:08;;;;;;;;;;;;;;;28.25;50.80;99938.41;104115;279;114395;-65
2023/07/27 06:32:41;;;;;;;;;;;;;;;28.98;51.05;99935.91;104108;279;95100;-65
2023/07/27 06:35:13;;;;;;;;;;;;;;;29.57;50.28;99934.23;104129;279;96278;-65
2023/07/27 06:37:47;;;;;;;;;;;;;;;30.47;49.58;99939.21;104091;279;120482;-65
2023/07/27 06:40:20;;;;;;;;;;;;;;;30.02;48.53;99937.17;104114;279;105766;-63
2023/07/27 06:42:52;;;;;;;;;;;;;;;29.06;49.21;99937.48;104086;279;113686;-63
2023/07/27 06:45:24;;;;;;;;;;;;;;;29.01;49.93;99936.33;104101;279;94156;-67
2023/07/27 06:47:56;;;;;;;;;;;;;;;29.89;49.12;99934.64;104508;279;97547;-66
2023/07/27 06:50:29;;;;;;;;;;;;;;;31.11;47.89;99932.77;104065;279;121322;-64
2023/07/27 06:53:01;;;;;;;;;;;;;;;31.14;46.19;99931.80;104070;279;103980;-63
2023/07/27 06:55:33;;;;;;;;;;;;;;;30.31;46.51;99930.98;104086;279;114611;-64
2023/07/27 06:58:06;;;;;;;;;;;;;;;29.94;47.35;99933.80;104113;279;94786;-64
2023/07/27 07:00:38;;;;;;;;;;;;;;;29.48;47.58;99934.08;104099;279;96830;-66
2023/07/27 07:03:11;;;;;;;;;;;;;;;28.97;47.75;99932.61;104111;279;121238;-66
2023/07/27 07:05:43;;;;;;;;;;;;;;;29.72;48.09;99931.54;103843;279;104690;-67
2023/07/27 07:08:16;;;;;;;;;;;;;;;30.92;46.47;99936.07;104069;279;115376;-67
2023/07/27 07:10:48;;;;;;;;;;;;;;;30.58;45.44;99933.09;104061;279;94679;-63
2023/07/27 07:13:21;;;;;;;;;;;;;;;29.17;45.44;99939.66;104131;279;98604;-64
2023/07/27 07:15:53;;;;;;;;;;;;;;;28.59;46.84;99943.77;104109;279;122303;-67
2023/07/27 07:18:26;;;;;;;;;;;;;;;30.20;46.46;99940.02;104133;279;105671;-66
2023/07/27 07:20:59;;;;;;;;;;;;;;;31.89;44.36;99942.66;104083;279;112999;-66
2023/07/27 07:23:32;;;;;;;;;;;;;;;32.62;43.12;99943.20;103819;279;95843;-64
2023/07/27 07:26:05;;;;;;;;;;;;;;;32.04;43.36;99950.95;104088;279;96430;-63
2023/07/27 07:28:38;;;;;;;;;;;;;;;31.25;42.94;99952.27;104086;279;120899;-66
2023/07/27 07:31:10;;;;;;;;;;;;;;;29.14;44.10;99955.85;104496;279;104879;-64
2023/07/27 07:33:42;;;;;;;;;;;;;;;29.75;45.53;99955.78;104060;279;114971;-64
2023/07/27 07:36:14;;;;;;;;;;;;;;;31.44;44.18;99948.39;104082;279;94661;-65
2023/07/27 07:38:47;;;;;;;;;;;;;;;31.76;42.95;99952.98;104109;279;98138;-65
2023/07/27 07:41:19;;;;;;;;;;;;;;;31.53;42.93;99953.02;104479;279;120800;-62
2023/07/27 07:43:52;;;;;;;;;;;;;;;32.14;42.41;99955.14;104089;279;105972;-63
2023/07/27 07:46:24;;;;;;;;;;;;;;;32.69;41.79;99951.31;104080;279;116090;-62
2023/07/27 07:48:57;;;;;;;;;;;;;;;33.33;41.30;99951.90;104072;279;93099;-57
2023/07/27 07:51:29;;;;;;;;;;;;;;;32.53;40.51;99956.59;104489;279;96607;-56
2023/07/27 07:54:02;;;;;;;;;;;;;;;31.46;41.65;99950.42;104514;279;121859;-56
2023/07/27 07:56:35;;;;;;;;;;;;;;;32.22;41.37;99950.48;104517;279;105604;-56
2023/07/27 07:59:07;;;;;;;;;;;;;;;32.22;40.36;99951.33;104038;279;114258;-58
2023/07/27 08:01:39;;;;;;;;;;;;;;;30.45;40.45;99953.58;104507;279;94720;-58
2023/07/27 08:04:12;;;;;;;;;;;;;;;28.64;41.98;99961.00;104122;279;98262;-60
2023/07/27 08:06:45;;;;;;;;;;;;;;;28.66;44.10;99962.25;104101;279;121208;-61
2023/07/27 08:09:17;;;;;;;;;;;;;;;30.08;43.06;99958.38;104510;279;105999;-59
2023/07/27 08:11:49;;;;;;;;;;;;;;;30.82;41.55;99958.11;104066;279;114032;-59
2023/07/27 08:14:23;;;;;;;;;;;;;;;31.84;41.67;99959.20;104087;279;93974;-61
2023/07/27 08:16:55;;;;;;;;;;;;;;;32.03;40.97;99956.71;104120;279;97576;-61
2023/07/27 08:19:27;;;;;;;;;;;;;;;31.55;41.02;99953.96;104089;279;121671;-57
2023/07/27 08:21:59;;;;;;;;;;;;;;;31.93;39.75;99950.19;104513;279;105101;-57
2023/07/27 08:24:32;;;;;;;;;;;;;;;32.39;39.21;99946.95;104144;279;114623;-59
2023/07/27 08:27:06;;;;;;;;;;;;;;;33.06;39.02;99944.27;104473;279;93840;-59
2023/07/27 08:29:39;;;;;;;;;;;;;;;33.09;38.81;99940.30;104096;279;96614;-61
2023/07/27 08:32:11;;;;;;;;;;;;;;;33.45;38.49;99939.78;104105;279;121662;-62
2023/07/27 08:34:43;;;;;;;;;;;;;;;33.68;37.13;99936.20;104092;279;103948;-57
2023/07/27 08:37:15;;;;;;;;;;;;;;;33.65;36.44;99937.71;104061;279;114371;-57
2023/07/27 08:39:48;;;;;;;;;;;;;;;33.77;36.82;99936.50;104060;279;94768;-57
2023/07/27 08:42:20;;;;;;;;;;;;;;;32.84;36.09;99943.51;104114;279;97466;-58
2023/07/27 08:44:53;;;;;;;;;;;;;;;31.28;37.07;99943.52;104078;279;119515;-60
2023/07/27 08:47:26;;;;;;;;;;;;;;;31.43;38.72;99943.04;104081;279;106251;-61
2023/07/27 08:49:59;;;;;;;;;;;;;;;32.30;37.78;99945.52;104499;279;113668;-60
2023/07/27 08:52:31;;;;;;;;;;;;;;;33.00;37.36;99939.59;104087;279;94912;-60
2023/07/27 08:55:05;;;;;;;;;;;;;;;33.37;37.05;99937.52;104097;279;96670;-58
2023/07/27 08:57:37;;;;;;;;;;;;;;;33.32;36.74;99933.69;104478;279;120293;-58
2023/07/27 09:00:12;;;;;;;;;;;;;;;33.15;35.75;99936.48;104099;279;104379;-57
2023/07/27 09:02:45;;;;;;;;;;;;;;;32.13;35.06;99938.45;104089;279;112850;-57
2023/07/27 09:05:18;;;;;;;;;;;;;;;30.79;34.94;99939.41;104097;279;92761;-58
2023/07/27 09:08:05;;;;;;;;;;;;;;;29.68;36.81;99940.20;104100;279;97637;-58
2023/07/27 09:10:38;;;;;;;;;;;;;;;29.28;38.57;99938.13;104074;279;121252;-57
2023/07/27 09:13:11;;;;;;;;;;;;;;;29.42;38.64;99936.11;104086;279;105599;-57
2023/07/27 09:15:46;;;;;;;;;;;;;;;29.83;38.74;99932.34;104088;279;114328;-60
2023/07/27 09:18:18;;;;;;;;;;;;;;;30.04;39.38;99935.61;104070;268;95463;-60
2023/07/27 09:20:51;;;;;;;;;;;;;;;29.85;38.60;99934.44;103868;279;97649;-61
2023/07/27 09:23:23;;;;;;;;;;;;;;;29.46;39.17;99935.27;104096;279;122418;-59
2023/07/27 09:25:56;;;;;;;;;;;;;;;28.90;39.05;99933.11;104093;279;105004;-61
2023/07/27 09:28:29;;;;;;;;;;;;;;;28.19;39.03;99941.77;104062;279;114701;-60
2023/07/27 09:31:03;;;;;;;;;;;;;;;27.44;39.28;99940.77;103813;280;96117;-63
2023/07/27 09:33:36;;;;;;;;;;;;;;;26.68;40.75;99939.45;104478;280;96564;-63
2023/07/27 09:36:10;;;;;;;;;;;;;;;26.14;41.07;99934.86;103850;280;120870;-63
2023/07/27 09:38:43;;;;;;;;;;;;;;;25.95;41.90;99937.05;104056;279;105973;-63
2023/07/27 09:41:15;;;;;;;;;;;;;;;26.16;42.50;99934.13;104001;279;114155;-64
2023/07/27 09:43:49;;;;;;;;;;;;;;;26.34;43.28;99936.23;104047;279;92739;-62
2023/07/27 09:46:25;;;;;;;;;;;;;;;26.47;43.78;99932.19;104470;279;97341;-62
2023/07/27 09:48:57;;;;;;;;;;;;;;;26.54;44.02;99931.66;104498;279;120904;-60
2023/07/27 09:51:30;;;;;;;;;;;;;;;26.61;43.68;99930.38;104096;279;103795;-61
2023/07/27 09:54:05;;;;;;;;;;;;;;;26.59;43.46;99933.85;104038;283;113818;-60
2023/07/27 09:56:38;;;;;;;;;;;;;;;26.59;43.11;99928.64;103835;279;94100;-60
2023/07/27 09:59:11;;;;;;;;;;;;;;;26.52;43.09;99928.61;104086;279;97233;-62
2023/07/27 10:01:44;;;;;;;;;;;;;;;26.42;43.01;99926.18;104005;279;122035;-61
2023/07/27 10:04:16;;;;;;;;;;;;;;;26.16;42.55;99932.46;103836;329;105101;-63
2023/07/27 10:06:48;;;;;;;;;;;;;;;26.20;42.67;99929.13;104016;279;114618;-62
2023/07/27 10:09:22;;;;;;;;;;;;;;;26.22;42.57;99922.49;104010;280;94886;-61
2023/07/27 10:11:59;;;;;;;;;;;;;;;26.31;42.99;99919.46;104073;268;95901;-61
2023/07/27 10:14:32;;;;;;;;;;;;;;;26.44;42.43;99915.62;104078;279;120857;-62
2023/07/27 10:17:07;;;;;;;;;;;;;;;26.54;42.40;99914.81;104052;279;106054;-62
2023/07/27 10:19:45;;;;;;;;;;;;;;;26.58;42.14;99914.26;104023;279;113789;-62
2023/07/27 10:22:18;;;;;;;;;;;;;;;26.34;42.59;99914.80;104431;279;93038;-63
2023/07/27 10:24:52;;;;;;;;;;;;;;;25.84;42.29;99922.68;103851;279;97616;-62
2023/07/27 10:27:25;;;;;;;;;;;;;;;25.71;42.80;99919.94;104032;279;122016;-62
2023/07/27 10:30:11;;;;;;;;;;;;;;;25.93;42.92;99915.21;104476;279;106634;-62
2023/07/27 10:33:03;;;;;;;;;;;;;;;26.24;42.96;99912.11;104510;279;113282;-62
2023/07/27 10:35:49;;;;;;;;;;;;;;;26.32;42.13;99913.02;104094;279;94050;-64
2023/07/27 10:38:23;;;;;;;;;;;;;;;26.37;42.84;99909.20;104078;279;96196;-64
2023/07/27 10:40:55;;;;;;;;;;;;;;;26.34;41.82;99906.60;104082;279;121493;-62
2023/07/27 10:43:29;;;;;;;;;;;;;;;26.29;41.59;99904.71;104072;279;105135;-62
2023/07/27 10:46:01;;;;;;;;;;;;;;;26.27;41.53;99903.30;104485;279;114405;-62
2023/07/27 10:48:33;;;;;;;;;;;;;;;26.17;41.23;99894.61;104473;279;95257;-62
2023/07/27 10:51:05;;;;;;;;;;;;;;;26.19;41.13;99893.46;104087;279;98078;-62
2023/07/27 10:53:39;;;;;;;;;;;;;;;26.28;40.92;99892.47;104079;279;121335;-62
2023/07/27 10:56:12;;;;;;;;;;;;;;;26.32;40.95;99888.86;104096;279;106039;-62
2023/07/27 10:58:45;;;;;;;;;;;;;;;26.33;41.39;99886.90;104077;279;113675;-62
2023/07/27 11:01:17;;;;;;;;;;;;;;;26.31;40.74;99887.44;104489;279;94316;-62
2023/07/27 11:03:50;;;;;;;;;;;;;;;26.29;40.77;99883.81;104084;279;96353;-62
2023/07/27 11:06:22;;;;;;;;;;;;;;;26.21;40.27;99881.05;104067;279;121725;-62
2023/07/27 11:08:55;;;;;;;;;;;;;;;26.28;40.59;99880.42;104105;279;103879;-62
2023/07/27 11:11:28;;;;;;;;;;;;;;;26.29;40.08;99875.96;104037;279;113900;-62
2023/07/27 11:14:08;;;;;;;;;;;;;;;26.20;39.92;99874.23;104100;283;94067;-65
2023/07/27 11:16:42;;;;;;;;;;;;;;;26.07;39.53;99867.65;104136;279;97278;-65
2023/07/27 11:19:14;;;;;;;;;;;;;;;25.47;39.94;99873.78;104113;279;120765;-63
2023/07/27 11:21:49;;;;;;;;;;;;;;;25.21;40.30;99875.07;104113;279;104373;-63
2023/07/27 11:24:22;;;;;;;;;;;;;;;25.47;40.78;99871.29;104099;279;113336;-61
2023/07/27 11:26:55;;;;;;;;;;;;;;;25.66;40.19;99867.52;104513;279;92741;-60
2023/07/27 11:29:28;;;;;;;;;;;;;;;25.65;40.17;99864.36;104105;279;96415;-60
2023/07/27 11:32:02;;;;;;;;;;;;;;;25.71;39.87;99861.45;104101;279;119717;-59
2023/07/27 11:34:36;;;;;;;;;;;;;;;25.68;39.17;99860.45;104103;279;103698;-61
2023/07/27 11:37:08;;;;;;;;;;;;;;;25.77;39.50;99851.22;104053;279;114247;-62
2023/07/27 11:39:40;;;;;;;;;;;;;;;25.88;39.19;99849.16;104477;279;95200;-61
2023/07/27 11:42:13;;;;;;;;;;;;;;;26.01;39.76;99853.05;104068;279;97174;-61
2023/07/27 11:44:45;;;;;;;;;;;;;;;26.11;39.62;99846.31;104072;279;122233;-62
2023/07/27 11:47:17;;;;;;;;;;;;;;;26.20;39.55;99845.44;104068;279;105513;-62
2023/07/27 11:49:50;;;;;;;;;;;;;;;26.27;39.53;99847.80;104089;279;115228;-59
2023/07/27 11:52:22;;;;;;;;;;;;;;;26.24;38.98;99844.98;104489;279;93881;-59
2023/07/27 11:54:55;;;;;;;;;;;;;;;26.18;39.40;99842.92;104109;279;97467;-62
2023/07/27 11:57:27;;;;;;;;;;;;;;;25.74;38.90;99838.77;104487;279;121637;-62
2023/07/27 12:00:10;;;;;;;;;;;;;;;25.32;39.18;99841.23;104101;279;104119;-62
2023/07/27 12:02:46;;;;;;;;;;;;;;;25.34;39.49;99841.98;104117;279;114751;-63
2023/07/27 12:05:20;;;;;;;;;;;;;;;25.32;39.52;99838.14;104517;279;95487;-60
2023/07/27 12:07:56;;;;;;;;;;;;;;;25.09;39.68;99835.94;104130;279;97841;-60
2023/07/27 12:10:29;;;;;;;;;;;;;;;24.81;39.84;99846.97;104494;279;122314;-60
2023/07/27 12:13:04;;;;;;;;;;;;;;;24.46;40.30;99841.00;104094;279;105994;-61
2023/07/27 12:15:40;;;;;;;;;;;;;;;24.41;40.49;99840.83;104106;279;114756;-61
2023/07/27 12:18:13;;;;;;;;;;;;;;;24.49;40.36;99838.30;104110;279;94633;-61
2023/07/27 12:20:45;;;;;;;;;;;;;;;24.51;40.42;99839.87;104522;279;97081;-60
2023/07/27 12:23:18;;;;;;;;;;;;;;;24.43;40.65;99841.14;104079;279;119980;-60
2023/07/27 12:25:51;;;;;;;;;;;;;;;24.27;41.28;99843.45;104503;279;105150;-60
2023/07/27 12:28:23;;;;;;;;;;;;;;;24.18;41.68;99837.45;104048;279;114500;-54
2023/07/27 12:30:55;;;;;;;;;;;;;;;24.28;42.24;99835.45;104078;279;95704;-57
2023/07/27 12:33:29;;;;;;;;;;;;;;;24.39;42.51;99836.60;104126;267;97453;-57
2023/07/27 12:36:01;;;;;;;;;;;;;;;24.44;42.25;99838.31;104120;279;122329;-61
2023/07/27 12:38:34;;;;;;;;;;;;;;;24.33;42.48;99834.79;104126;279;105758;-57
2023/07/27 12:41:06;;;;;;;;;;;;;;;24.29;42.56;99833.56;104061;279;114407;-57
2023/07/27 12:43:39;;;;;;;;;;;;;;;24.36;42.40;99830.89;104073;279;93541;-63
2023/07/27 12:46:13;;;;;;;;;;;;;;;24.28;42.17;99832.80;104489;279;97665;-62
2023/07/27 12:48:45;;;;;;;;;;;;;;;24.25;42.53;99829.86;104125;279;121822;-63
2023/07/27 12:51:17;;;;;;;;;;;;;;;24.29;42.45;99826.00;104493;279;106128;-56
2023/07/27 12:53:50;;;;;;;;;;;;;;;24.12;42.20;99827.22;104108;279;114796;-58
2023/07/27 12:56:22;;;;;;;;;;;;;;;23.87;42.51;99822.91;104472;279;92546;-58
2023/07/27 12:58:54;;;;;;;;;;;;;;;23.74;42.49;99820.67;104134;271;97159;-54
2023/07/27 13:01:27;;;;;;;;;;;;;;;23.47;42.43;99823.77;104087;279;121350;-54
2023/07/27 13:03:59;;;;;;;;;;;;;;;23.26;42.76;99827.42;104509;279;105539;-55
2023/07/27 13:06:31;;;;;;;;;;;;;;;23.11;43.02;99826.48;104058;279;114746;-57
2023/07/27 13:09:07;;;;;;;;;;;;;;;23.04;43.05;99825.95;104080;279;95321;-54
2023/07/27 13:11:39;;;;;;;;;;;;;;;23.10;43.02;99823.95;104063;279;97125;-54